sensor_id;sensor_type;location;lat;lon;timestamp;P1;durP1;ratioP1;P2;durP2;ratioP2
60370;SDS011;48550;40.588;49.684;2023-04-02T00:08:54;9.18;;;5.95;;
60370;SDS011;48550;40.588;49.684;2023-04-02T00:11:30;10.43;;;5.78;;
60370;SDS011;48550;40.588;49.684;2023-04-02T00:13:59;8.70;;;5.55;;
60370;SDS011;48550;40.588;49.684;2023-04-02T00:16:26;9.27;;;5.43;;
60370;SDS011;48550;40.588;49.684;2023-04-02T00:18:54;8.90;;;5.07;;
60370;SDS011;48550;40.588;49.684;2023-04-02T00:21:28;9.68;;;6.20;;
60370;SDS011;48550;40.588;49.684;2023-04-02T00:24:00;8.27;;;4.70;;
60370;SDS011;48550;40.588;49.684;2023-04-02T00:26:47;9.30;;;5.43;;
60370;SDS011;48550;40.588;49.684;2023-04-02T00:29:14;7.80;;;4.97;;
60370;SDS011;48550;40.588;49.684;2023-04-02T00:31:51;7.95;;;4.95;;
60370;SDS011;48550;40.588;49.684;2023-04-02T00:34:19;7.18;;;4.38;;
60370;SDS011;48550;40.588;49.684;2023-04-02T00:36:48;7.22;;;4.80;;
60370;SDS011;48550;40.588;49.684;2023-04-02T00:39:19;8.68;;;4.95;;
60370;SDS011;48550;40.588;49.684;2023-04-02T00:41:49;7.50;;;4.63;;
60370;SDS011;48550;40.588;49.684;2023-04-02T00:44:30;7.53;;;4.88;;
60370;SDS011;48550;40.588;49.684;2023-04-02T00:46:58;7.55;;;4.95;;
60370;SDS011;48550;40.588;49.684;2023-04-02T00:49:35;8.48;;;4.88;;
60370;SDS011;48550;40.588;49.684;2023-04-02T00:52:05;7.68;;;4.93;;
60370;SDS011;48550;40.588;49.684;2023-04-02T00:54:41;8.23;;;4.78;;
60370;SDS011;48550;40.588;49.684;2023-04-02T00:57:15;7.70;;;4.80;;
60370;SDS011;48550;40.588;49.684;2023-04-02T01:00:09;6.67;;;4.47;;
60370;SDS011;48550;40.588;49.684;2023-04-02T01:05:46;8.85;;;5.07;;
60370;SDS011;48550;40.588;49.684;2023-04-02T01:21:35;8.88;;;5.20;;
60370;SDS011;48550;40.588;49.684;2023-04-02T01:24:17;8.93;;;4.93;;
60370;SDS011;48550;40.588;49.684;2023-04-02T01:29:24;8.80;;;5.30;;
60370;SDS011;48550;40.588;49.684;2023-04-02T01:31:52;6.88;;;4.53;;
60370;SDS011;48550;40.588;49.684;2023-04-02T01:34:21;7.95;;;4.80;;
60370;SDS011;48550;40.588;49.684;2023-04-02T01:44:36;8.43;;;4.97;;
60370;SDS011;48550;40.588;49.684;2023-04-02T01:47:09;6.97;;;4.53;;
60370;SDS011;48550;40.588;49.684;2023-04-02T01:49:38;8.07;;;5.20;;
60370;SDS011;48550;40.588;49.684;2023-04-02T01:52:06;7.28;;;4.68;;
60370;SDS011;48550;40.588;49.684;2023-04-02T01:54:31;8.13;;;5.18;;
60370;SDS011;48550;40.588;49.684;2023-04-02T01:56:58;6.60;;;4.47;;
60370;SDS011;48550;40.588;49.684;2023-04-02T01:59:24;6.63;;;4.30;;
60370;SDS011;48550;40.588;49.684;2023-04-02T02:01:52;7.20;;;4.72;;
60370;SDS011;48550;40.588;49.684;2023-04-02T02:04:24;7.20;;;4.90;;
60370;SDS011;48550;40.588;49.684;2023-04-02T02:06:51;10.18;;;5.15;;
60370;SDS011;48550;40.588;49.684;2023-04-02T02:09:18;6.57;;;4.07;;
60370;SDS011;48550;40.588;49.684;2023-04-02T02:11:48;8.48;;;4.68;;
60370;SDS011;48550;40.588;49.684;2023-04-02T02:14:18;8.15;;;4.35;;
60370;SDS011;48550;40.588;49.684;2023-04-02T02:16:48;6.40;;;3.65;;
60370;SDS011;48550;40.588;49.684;2023-04-02T02:22:13;7.68;;;3.78;;
60370;SDS011;48550;40.588;49.684;2023-04-02T02:25:03;6.82;;;4.10;;
60370;SDS011;48550;40.588;49.684;2023-04-02T02:27:48;7.32;;;4.15;;
60370;SDS011;48550;40.588;49.684;2023-04-02T02:30:35;6.47;;;4.10;;
60370;SDS011;48550;40.588;49.684;2023-04-02T02:33:13;5.72;;;3.75;;
60370;SDS011;48550;40.588;49.684;2023-04-02T02:36:04;7.00;;;4.65;;
60370;SDS011;48550;40.588;49.684;2023-04-02T02:41:50;6.35;;;3.72;;
60370;SDS011;48550;40.588;49.684;2023-04-02T02:44:26;6.97;;;4.10;;
60370;SDS011;48550;40.588;49.684;2023-04-02T02:47:29;8.07;;;4.20;;
60370;SDS011;48550;40.588;49.684;2023-04-02T02:50:01;7.03;;;4.90;;
60370;SDS011;48550;40.588;49.684;2023-04-02T02:52:31;7.95;;;4.45;;
60370;SDS011;48550;40.588;49.684;2023-04-02T02:55:02;6.82;;;3.80;;
60370;SDS011;48550;40.588;49.684;2023-04-02T02:57:52;9.43;;;4.57;;
60370;SDS011;48550;40.588;49.684;2023-04-02T03:00:22;6.90;;;4.38;;
60370;SDS011;48550;40.588;49.684;2023-04-02T03:02:48;7.45;;;4.32;;
60370;SDS011;48550;40.588;49.684;2023-04-02T03:05:20;7.43;;;4.20;;
60370;SDS011;48550;40.588;49.684;2023-04-02T03:07:51;5.85;;;3.90;;
60370;SDS011;48550;40.588;49.684;2023-04-02T03:13:29;6.50;;;3.78;;
60370;SDS011;48550;40.588;49.684;2023-04-02T03:16:08;6.53;;;4.18;;
60370;SDS011;48550;40.588;49.684;2023-04-02T03:21:30;7.75;;;3.63;;
60370;SDS011;48550;40.588;49.684;2023-04-02T03:24:11;7.53;;;4.20;;
60370;SDS011;48550;40.588;49.684;2023-04-02T03:26:45;6.20;;;3.92;;
60370;SDS011;48550;40.588;49.684;2023-04-02T03:29:26;6.28;;;4.45;;
60370;SDS011;48550;40.588;49.684;2023-04-02T03:31:59;8.48;;;3.83;;
60370;SDS011;48550;40.588;49.684;2023-04-02T03:39:32;5.78;;;3.90;;
60370;SDS011;48550;40.588;49.684;2023-04-02T03:44:48;7.07;;;4.60;;
60370;SDS011;48550;40.588;49.684;2023-04-02T03:47:53;7.03;;;4.20;;
60370;SDS011;48550;40.588;49.684;2023-04-02T03:50:22;6.70;;;4.05;;
60370;SDS011;48550;40.588;49.684;2023-04-02T03:52:55;6.90;;;4.32;;
60370;SDS011;48550;40.588;49.684;2023-04-02T03:55:23;6.97;;;3.97;;
60370;SDS011;48550;40.588;49.684;2023-04-02T04:00:41;9.10;;;5.07;;
60370;SDS011;48550;40.588;49.684;2023-04-02T04:03:17;8.65;;;4.80;;
60370;SDS011;48550;40.588;49.684;2023-04-02T04:06:26;6.50;;;4.40;;
60370;SDS011;48550;40.588;49.684;2023-04-02T04:08:58;9.02;;;4.38;;
60370;SDS011;48550;40.588;49.684;2023-04-02T04:11:43;8.43;;;4.95;;
60370;SDS011;48550;40.588;49.684;2023-04-02T04:16:56;5.97;;;3.75;;
60370;SDS011;48550;40.588;49.684;2023-04-02T04:22:14;5.30;;;3.47;;
60370;SDS011;48550;40.588;49.684;2023-04-02T04:24:45;5.75;;;3.65;;
60370;SDS011;48550;40.588;49.684;2023-04-02T04:27:14;6.95;;;4.40;;
60370;SDS011;48550;40.588;49.684;2023-04-02T04:30:05;6.15;;;3.88;;
60370;SDS011;48550;40.588;49.684;2023-04-02T04:32:57;7.28;;;4.10;;
60370;SDS011;48550;40.588;49.684;2023-04-02T04:35:35;5.15;;;3.17;;
60370;SDS011;48550;40.588;49.684;2023-04-02T04:38:23;5.70;;;3.35;;
60370;SDS011;48550;40.588;49.684;2023-04-02T04:41:13;6.10;;;3.42;;
60370;SDS011;48550;40.588;49.684;2023-04-02T04:43:45;5.70;;;3.17;;
60370;SDS011;48550;40.588;49.684;2023-04-02T04:46:26;6.53;;;3.95;;
60370;SDS011;48550;40.588;49.684;2023-04-02T04:49:10;5.75;;;3.45;;
60370;SDS011;48550;40.588;49.684;2023-04-02T04:51:57;8.18;;;3.42;;
60370;SDS011;48550;40.588;49.684;2023-04-02T04:54:29;5.78;;;3.33;;
60370;SDS011;48550;40.588;49.684;2023-04-02T04:56:59;7.00;;;4.15;;
60370;SDS011;48550;40.588;49.684;2023-04-02T04:59:31;7.55;;;4.22;;
60370;SDS011;48550;40.588;49.684;2023-04-02T05:02:06;5.63;;;3.85;;
60370;SDS011;48550;40.588;49.684;2023-04-02T05:04:42;9.45;;;3.88;;
60370;SDS011;48550;40.588;49.684;2023-04-02T05:07:28;6.18;;;3.70;;
60370;SDS011;48550;40.588;49.684;2023-04-02T05:09:58;6.07;;;3.60;;
60370;SDS011;48550;40.588;49.684;2023-04-02T05:12:44;7.47;;;4.00;;
60370;SDS011;48550;40.588;49.684;2023-04-02T05:15:26;5.47;;;3.70;;
60370;SDS011;48550;40.588;49.684;2023-04-02T05:20:47;6.93;;;4.28;;
60370;SDS011;48550;40.588;49.684;2023-04-02T05:23:18;9.33;;;3.90;;
60370;SDS011;48550;40.588;49.684;2023-04-02T05:26:04;6.65;;;4.10;;
60370;SDS011;48550;40.588;49.684;2023-04-02T05:31:40;5.75;;;4.03;;
60370;SDS011;48550;40.588;49.684;2023-04-02T05:34:11;8.75;;;5.85;;
60370;SDS011;48550;40.588;49.684;2023-04-02T05:36:38;11.68;;;7.50;;
60370;SDS011;48550;40.588;49.684;2023-04-02T05:39:07;7.93;;;4.10;;
60370;SDS011;48550;40.588;49.684;2023-04-02T05:44:36;5.05;;;3.55;;
60370;SDS011;48550;40.588;49.684;2023-04-02T05:47:12;5.65;;;3.80;;
60370;SDS011;48550;40.588;49.684;2023-04-02T05:49:48;5.40;;;3.47;;
60370;SDS011;48550;40.588;49.684;2023-04-02T05:52:36;7.63;;;4.30;;
60370;SDS011;48550;40.588;49.684;2023-04-02T05:55:22;8.30;;;4.10;;
60370;SDS011;48550;40.588;49.684;2023-04-02T05:58:45;8.15;;;3.92;;
60370;SDS011;48550;40.588;49.684;2023-04-02T06:00:52;6.57;;;3.65;;
60370;SDS011;48550;40.588;49.684;2023-04-02T06:12:38;4.28;;;2.90;;
60370;SDS011;48550;40.588;49.684;2023-04-02T06:15:39;5.95;;;3.67;;
60370;SDS011;48550;40.588;49.684;2023-04-02T06:18:03;6.78;;;3.33;;
60370;SDS011;48550;40.588;49.684;2023-04-02T06:20:32;7.63;;;3.70;;
60370;SDS011;48550;40.588;49.684;2023-04-02T06:25:49;5.78;;;3.92;;
60370;SDS011;48550;40.588;49.684;2023-04-02T06:28:24;6.20;;;4.07;;
60370;SDS011;48550;40.588;49.684;2023-04-02T06:30:59;6.95;;;4.10;;
60370;SDS011;48550;40.588;49.684;2023-04-02T06:33:30;6.20;;;4.38;;
60370;SDS011;48550;40.588;49.684;2023-04-02T06:35:55;5.25;;;4.10;;
60370;SDS011;48550;40.588;49.684;2023-04-02T06:38:25;9.32;;;4.75;;
60370;SDS011;48550;40.588;49.684;2023-04-02T06:40:57;6.43;;;3.88;;
60370;SDS011;48550;40.588;49.684;2023-04-02T06:43:38;5.90;;;3.78;;
60370;SDS011;48550;40.588;49.684;2023-04-02T06:46:30;5.63;;;3.90;;
60370;SDS011;48550;40.588;49.684;2023-04-02T06:51:59;8.80;;;5.25;;
60370;SDS011;48550;40.588;49.684;2023-04-02T06:54:27;5.47;;;3.80;;
60370;SDS011;48550;40.588;49.684;2023-04-02T06:56:54;7.13;;;3.72;;
60370;SDS011;48550;40.588;49.684;2023-04-02T06:59:22;5.70;;;3.95;;
60370;SDS011;48550;40.588;49.684;2023-04-02T07:01:56;10.10;;;4.90;;
60370;SDS011;48550;40.588;49.684;2023-04-02T07:04:27;11.88;;;5.07;;
60370;SDS011;48550;40.588;49.684;2023-04-02T07:06:54;8.35;;;4.57;;
60370;SDS011;48550;40.588;49.684;2023-04-02T07:09:20;6.25;;;4.25;;
60370;SDS011;48550;40.588;49.684;2023-04-02T07:11:46;6.60;;;4.10;;
60370;SDS011;48550;40.588;49.684;2023-04-02T07:14:12;7.30;;;4.35;;
60370;SDS011;48550;40.588;49.684;2023-04-02T07:16:38;8.90;;;5.28;;
60370;SDS011;48550;40.588;49.684;2023-04-02T07:19:05;7.35;;;4.70;;
60370;SDS011;48550;40.588;49.684;2023-04-02T07:21:31;8.82;;;4.97;;
60370;SDS011;48550;40.588;49.684;2023-04-02T07:23:57;10.75;;;5.38;;
60370;SDS011;48550;40.588;49.684;2023-04-02T07:26:24;9.60;;;5.75;;
60370;SDS011;48550;40.588;49.684;2023-04-02T07:28:52;7.05;;;4.05;;
60370;SDS011;48550;40.588;49.684;2023-04-02T07:31:20;6.50;;;4.53;;
60370;SDS011;48550;40.588;49.684;2023-04-02T07:33:51;9.63;;;4.68;;
60370;SDS011;48550;40.588;49.684;2023-04-02T07:36:19;6.10;;;4.43;;
60370;SDS011;48550;40.588;49.684;2023-04-02T07:38:47;7.47;;;4.57;;
60370;SDS011;48550;40.588;49.684;2023-04-02T07:41:13;7.55;;;4.20;;
60370;SDS011;48550;40.588;49.684;2023-04-02T07:43:39;5.05;;;3.45;;
60370;SDS011;48550;40.588;49.684;2023-04-02T07:46:06;6.40;;;3.90;;
60370;SDS011;48550;40.588;49.684;2023-04-02T07:48:32;5.50;;;3.58;;
60370;SDS011;48550;40.588;49.684;2023-04-02T07:50:58;9.82;;;4.18;;
60370;SDS011;48550;40.588;49.684;2023-04-02T07:55:58;6.03;;;3.13;;
60370;SDS011;48550;40.588;49.684;2023-04-02T07:58:26;6.38;;;3.92;;
60370;SDS011;48550;40.588;49.684;2023-04-02T08:00:52;11.13;;;4.40;;
60370;SDS011;48550;40.588;49.684;2023-04-02T08:03:18;8.20;;;3.50;;
60370;SDS011;48550;40.588;49.684;2023-04-02T08:05:48;6.40;;;2.85;;
60370;SDS011;48550;40.588;49.684;2023-04-02T08:08:18;4.90;;;3.08;;
60370;SDS011;48550;40.588;49.684;2023-04-02T08:10:45;6.97;;;3.45;;
60370;SDS011;48550;40.588;49.684;2023-04-02T08:13:11;6.97;;;3.30;;
60370;SDS011;48550;40.588;49.684;2023-04-02T08:15:37;6.47;;;3.20;;
60370;SDS011;48550;40.588;49.684;2023-04-02T08:18:03;12.00;;;6.03;;
60370;SDS011;48550;40.588;49.684;2023-04-02T08:20:29;9.93;;;5.70;;
60370;SDS011;48550;40.588;49.684;2023-04-02T08:22:55;7.80;;;4.47;;
60370;SDS011;48550;40.588;49.684;2023-04-02T08:25:22;6.38;;;4.38;;
60370;SDS011;48550;40.588;49.684;2023-04-02T08:27:48;7.47;;;4.57;;
60370;SDS011;48550;40.588;49.684;2023-04-02T08:30:14;6.45;;;3.75;;
60370;SDS011;48550;40.588;49.684;2023-04-02T08:32:41;6.85;;;3.05;;
60370;SDS011;48550;40.588;49.684;2023-04-02T08:35:10;4.82;;;2.78;;
60370;SDS011;48550;40.588;49.684;2023-04-02T08:37:39;4.35;;;2.83;;
60370;SDS011;48550;40.588;49.684;2023-04-02T08:40:05;5.82;;;3.30;;
60370;SDS011;48550;40.588;49.684;2023-04-02T08:42:45;7.10;;;2.72;;
60370;SDS011;48550;40.588;49.684;2023-04-02T08:48:20;4.45;;;3.20;;
60370;SDS011;48550;40.588;49.684;2023-04-02T08:50:47;6.60;;;2.90;;
60370;SDS011;48550;40.588;49.684;2023-04-02T09:04:19;5.63;;;2.80;;
60370;SDS011;48550;40.588;49.684;2023-04-02T09:06:47;7.50;;;2.50;;
60370;SDS011;48550;40.588;49.684;2023-04-02T09:09:15;5.18;;;2.55;;
60370;SDS011;48550;40.588;49.684;2023-04-02T09:14:17;4.63;;;2.50;;
60370;SDS011;48550;40.588;49.684;2023-04-02T09:16:48;7.00;;;3.35;;
60370;SDS011;48550;40.588;49.684;2023-04-02T09:19:36;4.55;;;2.88;;
60370;SDS011;48550;40.588;49.684;2023-04-02T09:22:10;6.03;;;3.20;;
60370;SDS011;48550;40.588;49.684;2023-04-02T09:24:49;5.50;;;2.83;;
60370;SDS011;48550;40.588;49.684;2023-04-02T09:27:17;3.78;;;2.35;;
60370;SDS011;48550;40.588;49.684;2023-04-02T09:29:48;4.20;;;2.60;;
60370;SDS011;48550;40.588;49.684;2023-04-02T09:32:26;4.13;;;2.20;;
60370;SDS011;48550;40.588;49.684;2023-04-02T09:40:48;5.93;;;1.95;;
60370;SDS011;48550;40.588;49.684;2023-04-02T09:43:25;6.60;;;2.15;;
60370;SDS011;48550;40.588;49.684;2023-04-02T09:48:50;4.38;;;2.15;;
60370;SDS011;48550;40.588;49.684;2023-04-02T09:51:20;3.45;;;1.90;;
60370;SDS011;48550;40.588;49.684;2023-04-02T09:56:30;2.90;;;1.80;;
60370;SDS011;48550;40.588;49.684;2023-04-02T10:01:46;4.47;;;2.42;;
60370;SDS011;48550;40.588;49.684;2023-04-02T10:07:28;3.45;;;2.20;;
60370;SDS011;48550;40.588;49.684;2023-04-02T10:09:59;5.20;;;2.80;;
60370;SDS011;48550;40.588;49.684;2023-04-02T10:12:28;4.40;;;2.25;;
60370;SDS011;48550;40.588;49.684;2023-04-02T10:14:59;4.30;;;2.50;;
60370;SDS011;48550;40.588;49.684;2023-04-02T10:17:28;5.13;;;2.85;;
60370;SDS011;48550;40.588;49.684;2023-04-02T10:20:01;3.88;;;2.50;;
60370;SDS011;48550;40.588;49.684;2023-04-02T10:22:36;6.35;;;2.30;;
60370;SDS011;48550;40.588;49.684;2023-04-02T10:25:04;4.75;;;2.65;;
60370;SDS011;48550;40.588;49.684;2023-04-02T10:33:06;5.72;;;3.53;;
60370;SDS011;48550;40.588;49.684;2023-04-02T10:35:56;6.70;;;2.70;;
60370;SDS011;48550;40.588;49.684;2023-04-02T10:41:18;3.70;;;2.30;;
60370;SDS011;48550;40.588;49.684;2023-04-02T10:47:36;4.57;;;2.70;;
60370;SDS011;48550;40.588;49.684;2023-04-02T10:52:45;4.18;;;2.50;;
60370;SDS011;48550;40.588;49.684;2023-04-02T10:55:17;3.83;;;2.40;;
60370;SDS011;48550;40.588;49.684;2023-04-02T10:57:48;4.60;;;2.65;;
60370;SDS011;48550;40.588;49.684;2023-04-02T11:00:21;3.88;;;2.20;;
60370;SDS011;48550;40.588;49.684;2023-04-02T11:05:46;3.33;;;1.80;;
60370;SDS011;48550;40.588;49.684;2023-04-02T11:11:03;6.30;;;2.15;;
60370;SDS011;48550;40.588;49.684;2023-04-02T11:13:49;7.15;;;3.60;;
60370;SDS011;48550;40.588;49.684;2023-04-02T11:16:16;3.20;;;1.92;;
60370;SDS011;48550;40.588;49.684;2023-04-02T11:18:56;4.60;;;2.25;;
60370;SDS011;48550;40.588;49.684;2023-04-02T11:24:05;3.03;;;1.88;;
60370;SDS011;48550;40.588;49.684;2023-04-02T11:26:46;4.40;;;2.03;;
60370;SDS011;48550;40.588;49.684;2023-04-02T11:31:38;4.40;;;1.92;;
60370;SDS011;48550;40.588;49.684;2023-04-02T11:34:04;2.63;;;1.50;;
60370;SDS011;48550;40.588;49.684;2023-04-02T11:39:43;5.20;;;2.70;;
60370;SDS011;48550;40.588;49.684;2023-04-02T11:42:34;7.80;;;2.90;;
60370;SDS011;48550;40.588;49.684;2023-04-02T11:50:37;4.15;;;2.70;;
60370;SDS011;48550;40.588;49.684;2023-04-02T11:55:40;3.50;;;1.90;;
60370;SDS011;48550;40.588;49.684;2023-04-02T12:00:52;3.53;;;1.98;;
60370;SDS011;48550;40.588;49.684;2023-04-02T12:11:44;5.32;;;1.60;;
60370;SDS011;48550;40.588;49.684;2023-04-02T12:14:28;3.80;;;1.88;;
60370;SDS011;48550;40.588;49.684;2023-04-02T12:16:55;3.22;;;1.83;;
60370;SDS011;48550;40.588;49.684;2023-04-02T12:19:22;5.43;;;2.10;;
60370;SDS011;48550;40.588;49.684;2023-04-02T12:21:50;2.70;;;1.98;;
60370;SDS011;48550;40.588;49.684;2023-04-02T12:24:21;3.08;;;1.90;;
60370;SDS011;48550;40.588;49.684;2023-04-02T12:27:05;5.00;;;2.00;;
60370;SDS011;48550;40.588;49.684;2023-04-02T12:29:32;2.85;;;1.70;;
60370;SDS011;48550;40.588;49.684;2023-04-02T12:31:59;2.35;;;1.60;;
60370;SDS011;48550;40.588;49.684;2023-04-02T12:34:26;4.05;;;2.00;;
60370;SDS011;48550;40.588;49.684;2023-04-02T12:37:03;4.70;;;1.85;;
60370;SDS011;48550;40.588;49.684;2023-04-02T12:39:30;3.17;;;1.80;;
60370;SDS011;48550;40.588;49.684;2023-04-02T12:41:57;12.05;;;2.33;;
60370;SDS011;48550;40.588;49.684;2023-04-02T12:44:24;4.05;;;2.00;;
60370;SDS011;48550;40.588;49.684;2023-04-02T12:46:52;2.97;;;1.77;;
60370;SDS011;48550;40.588;49.684;2023-04-02T12:49:30;2.75;;;2.03;;
60370;SDS011;48550;40.588;49.684;2023-04-02T12:52:03;3.97;;;2.03;;
60370;SDS011;48550;40.588;49.684;2023-04-02T12:54:33;9.88;;;2.05;;
60370;SDS011;48550;40.588;49.684;2023-04-02T12:57:19;5.00;;;2.20;;
60370;SDS011;48550;40.588;49.684;2023-04-02T12:59:53;3.55;;;2.10;;
60370;SDS011;48550;40.588;49.684;2023-04-02T13:02:21;6.97;;;2.33;;
60370;SDS011;48550;40.588;49.684;2023-04-02T13:04:49;8.00;;;2.67;;
60370;SDS011;48550;40.588;49.684;2023-04-02T13:07:16;6.28;;;2.45;;
60370;SDS011;48550;40.588;49.684;2023-04-02T13:09:45;7.25;;;2.63;;
60370;SDS011;48550;40.588;49.684;2023-04-02T13:12:35;6.85;;;2.70;;
60370;SDS011;48550;40.588;49.684;2023-04-02T13:15:05;5.10;;;2.80;;
60370;SDS011;48550;40.588;49.684;2023-04-02T13:17:41;8.90;;;2.85;;
60370;SDS011;48550;40.588;49.684;2023-04-02T13:20:27;8.20;;;2.83;;
60370;SDS011;48550;40.588;49.684;2023-04-02T13:25:54;6.32;;;3.72;;
60370;SDS011;48550;40.588;49.684;2023-04-02T13:28:20;6.30;;;3.45;;
60370;SDS011;48550;40.588;49.684;2023-04-02T13:30:46;7.45;;;3.65;;
60370;SDS011;48550;40.588;49.684;2023-04-02T13:33:13;6.25;;;3.67;;
60370;SDS011;48550;40.588;49.684;2023-04-02T13:35:39;6.10;;;3.70;;
60370;SDS011;48550;40.588;49.684;2023-04-02T13:38:05;8.50;;;4.25;;
60370;SDS011;48550;40.588;49.684;2023-04-02T13:40:33;7.45;;;4.90;;
60370;SDS011;48550;40.588;49.684;2023-04-02T13:43:00;8.27;;;4.50;;
60370;SDS011;48550;40.588;49.684;2023-04-02T13:45:34;8.80;;;5.22;;
60370;SDS011;48550;40.588;49.684;2023-04-02T13:48:02;7.38;;;4.32;;
60370;SDS011;48550;40.588;49.684;2023-04-02T13:50:29;11.32;;;4.47;;
60370;SDS011;48550;40.588;49.684;2023-04-02T13:52:57;9.25;;;5.30;;
60370;SDS011;48550;40.588;49.684;2023-04-02T13:55:25;10.40;;;5.90;;
60370;SDS011;48550;40.588;49.684;2023-04-02T13:57:54;8.13;;;5.15;;
60370;SDS011;48550;40.588;49.684;2023-04-02T14:00:21;12.23;;;6.28;;
60370;SDS011;48550;40.588;49.684;2023-04-02T14:02:51;9.82;;;5.90;;
60370;SDS011;48550;40.588;49.684;2023-04-02T14:08:10;15.73;;;7.60;;
60370;SDS011;48550;40.588;49.684;2023-04-02T14:13:41;12.70;;;8.32;;
60370;SDS011;48550;40.588;49.684;2023-04-02T14:18:52;13.57;;;8.23;;
60370;SDS011;48550;40.588;49.684;2023-04-02T14:29:38;16.45;;;9.27;;
60370;SDS011;48550;40.588;49.684;2023-04-02T14:43:11;15.13;;;8.32;;
60370;SDS011;48550;40.588;49.684;2023-04-02T14:46:03;13.95;;;8.98;;
60370;SDS011;48550;40.588;49.684;2023-04-02T14:51:37;15.27;;;9.25;;
60370;SDS011;48550;40.588;49.684;2023-04-02T14:54:10;13.80;;;8.57;;
60370;SDS011;48550;40.588;49.684;2023-04-02T14:56:48;15.38;;;8.88;;
60370;SDS011;48550;40.588;49.684;2023-04-02T14:59:26;21.45;;;10.55;;
60370;SDS011;48550;40.588;49.684;2023-04-02T15:05:04;14.35;;;8.60;;
60370;SDS011;48550;40.588;49.684;2023-04-02T15:07:52;16.17;;;8.40;;
60370;SDS011;48550;40.588;49.684;2023-04-02T15:13:22;13.70;;;8.52;;
60370;SDS011;48550;40.588;49.684;2023-04-02T15:15:55;16.35;;;8.82;;
60370;SDS011;48550;40.588;49.684;2023-04-02T15:18:29;15.93;;;8.57;;
60370;SDS011;48550;40.588;49.684;2023-04-02T15:21:07;13.88;;;8.07;;
60370;SDS011;48550;40.588;49.684;2023-04-02T15:29:59;13.43;;;8.85;;
60370;SDS011;48550;40.588;49.684;2023-04-02T15:32:43;13.77;;;8.52;;
60370;SDS011;48550;40.588;49.684;2023-04-02T15:35:21;13.20;;;8.02;;
60370;SDS011;48550;40.588;49.684;2023-04-02T15:40:47;12.20;;;7.53;;
60370;SDS011;48550;40.588;49.684;2023-04-02T15:54:51;18.67;;;8.35;;
60370;SDS011;48550;40.588;49.684;2023-04-02T15:59:59;18.90;;;10.38;;
60370;SDS011;48550;40.588;49.684;2023-04-02T16:08:30;13.60;;;8.93;;
60370;SDS011;48550;40.588;49.684;2023-04-02T16:11:10;14.50;;;9.07;;
60370;SDS011;48550;40.588;49.684;2023-04-02T16:13:39;15.20;;;8.63;;
60370;SDS011;48550;40.588;49.684;2023-04-02T16:16:08;15.13;;;8.90;;
60370;SDS011;48550;40.588;49.684;2023-04-02T16:21:32;15.70;;;9.18;;
60370;SDS011;48550;40.588;49.684;2023-04-02T16:24:07;16.52;;;9.88;;
60370;SDS011;48550;40.588;49.684;2023-04-02T16:44:27;21.73;;;12.82;;
60370;SDS011;48550;40.588;49.684;2023-04-02T16:49:48;16.52;;;10.68;;
60370;SDS011;48550;40.588;49.684;2023-04-02T17:00:54;20.17;;;10.07;;
60370;SDS011;48550;40.588;49.684;2023-04-02T17:03:39;21.05;;;10.82;;
60370;SDS011;48550;40.588;49.684;2023-04-02T17:08:48;16.67;;;10.95;;
60370;SDS011;48550;40.588;49.684;2023-04-02T17:11:55;19.27;;;11.35;;
60370;SDS011;48550;40.588;49.684;2023-04-02T17:14:29;20.67;;;11.00;;
60370;SDS011;48550;40.588;49.684;2023-04-02T17:17:02;18.20;;;11.80;;
60370;SDS011;48550;40.588;49.684;2023-04-02T17:19:29;15.68;;;10.43;;
60370;SDS011;48550;40.588;49.684;2023-04-02T17:22:04;15.85;;;10.23;;
60370;SDS011;48550;40.588;49.684;2023-04-02T17:24:32;16.70;;;10.65;;
60370;SDS011;48550;40.588;49.684;2023-04-02T17:29:47;14.55;;;9.75;;
60370;SDS011;48550;40.588;49.684;2023-04-02T17:32:27;16.52;;;11.82;;
60370;SDS011;48550;40.588;49.684;2023-04-02T17:34:56;18.25;;;12.50;;
60370;SDS011;48550;40.588;49.684;2023-04-02T17:37:46;22.25;;;14.05;;
60370;SDS011;48550;40.588;49.684;2023-04-02T17:40:27;18.65;;;12.02;;
60370;SDS011;48550;40.588;49.684;2023-04-02T17:43:06;20.33;;;13.43;;
60370;SDS011;48550;40.588;49.684;2023-04-02T17:48:57;24.17;;;15.23;;
60370;SDS011;48550;40.588;49.684;2023-04-02T18:05:50;22.10;;;12.50;;
60370;SDS011;48550;40.588;49.684;2023-04-02T18:14:10;20.60;;;12.45;;
60370;SDS011;48550;40.588;49.684;2023-04-02T18:17:09;20.17;;;10.65;;
60370;SDS011;48550;40.588;49.684;2023-04-02T18:20:02;16.73;;;9.65;;
60370;SDS011;48550;40.588;49.684;2023-04-02T18:31:42;14.38;;;6.90;;
60370;SDS011;48550;40.588;49.684;2023-04-02T18:48:18;10.02;;;5.45;;
60370;SDS011;48550;40.588;49.684;2023-04-02T18:50:57;9.77;;;6.60;;
60370;SDS011;48550;40.588;49.684;2023-04-02T18:53:25;11.32;;;6.38;;
60370;SDS011;48550;40.588;49.684;2023-04-02T18:55:55;9.85;;;5.78;;
60370;SDS011;48550;40.588;49.684;2023-04-02T19:01:35;9.63;;;6.22;;
60370;SDS011;48550;40.588;49.684;2023-04-02T19:04:17;10.75;;;6.40;;
60370;SDS011;48550;40.588;49.684;2023-04-02T19:06:52;10.60;;;7.65;;
60370;SDS011;48550;40.588;49.684;2023-04-02T19:09:22;12.38;;;7.40;;
60370;SDS011;48550;40.588;49.684;2023-04-02T19:11:51;12.07;;;6.93;;
60370;SDS011;48550;40.588;49.684;2023-04-02T19:14:18;11.57;;;7.50;;
60370;SDS011;48550;40.588;49.684;2023-04-02T19:20:01;9.95;;;7.03;;
60370;SDS011;48550;40.588;49.684;2023-04-02T19:28:26;7.63;;;4.80;;
60370;SDS011;48550;40.588;49.684;2023-04-02T19:31:10;6.90;;;4.68;;
60370;SDS011;48550;40.588;49.684;2023-04-02T19:34:10;5.70;;;3.88;;
60370;SDS011;48550;40.588;49.684;2023-04-02T19:36:45;5.50;;;3.33;;
60370;SDS011;48550;40.588;49.684;2023-04-02T19:39:33;4.63;;;3.10;;
60370;SDS011;48550;40.588;49.684;2023-04-02T19:42:27;5.05;;;3.30;;
60370;SDS011;48550;40.588;49.684;2023-04-02T19:45:04;5.45;;;3.30;;
60370;SDS011;48550;40.588;49.684;2023-04-02T19:47:36;6.28;;;4.53;;
60370;SDS011;48550;40.588;49.684;2023-04-02T19:50:02;5.28;;;3.72;;
60370;SDS011;48550;40.588;49.684;2023-04-02T19:52:28;5.93;;;3.47;;
60370;SDS011;48550;40.588;49.684;2023-04-02T19:54:54;5.18;;;3.30;;
60370;SDS011;48550;40.588;49.684;2023-04-02T19:57:19;5.18;;;3.50;;
60370;SDS011;48550;40.588;49.684;2023-04-02T19:59:45;4.88;;;3.40;;
60370;SDS011;48550;40.588;49.684;2023-04-02T20:02:11;5.82;;;3.95;;
60370;SDS011;48550;40.588;49.684;2023-04-02T20:04:37;5.38;;;3.75;;
60370;SDS011;48550;40.588;49.684;2023-04-02T20:07:02;5.45;;;3.50;;
60370;SDS011;48550;40.588;49.684;2023-04-02T20:09:28;5.65;;;3.92;;
60370;SDS011;48550;40.588;49.684;2023-04-02T20:11:54;6.07;;;3.90;;
60370;SDS011;48550;40.588;49.684;2023-04-02T20:14:19;5.93;;;3.78;;
60370;SDS011;48550;40.588;49.684;2023-04-02T20:16:45;6.50;;;4.38;;
60370;SDS011;48550;40.588;49.684;2023-04-02T20:19:11;7.05;;;5.00;;
60370;SDS011;48550;40.588;49.684;2023-04-02T20:21:37;9.15;;;5.88;;
60370;SDS011;48550;40.588;49.684;2023-04-02T20:24:06;11.68;;;7.32;;
60370;SDS011;48550;40.588;49.684;2023-04-02T20:26:33;12.77;;;8.90;;
60370;SDS011;48550;40.588;49.684;2023-04-02T20:28:59;16.33;;;11.07;;
60370;SDS011;48550;40.588;49.684;2023-04-02T20:31:25;15.70;;;10.70;;
60370;SDS011;48550;40.588;49.684;2023-04-02T20:33:55;15.90;;;10.90;;
60370;SDS011;48550;40.588;49.684;2023-04-02T20:36:22;13.15;;;9.90;;
60370;SDS011;48550;40.588;49.684;2023-04-02T20:38:49;13.38;;;9.52;;
60370;SDS011;48550;40.588;49.684;2023-04-02T20:41:16;13.43;;;9.52;;